Bookmark and Share
Track history (hours):
 

Ever Ulysses

Last reported at 2014-Apr-18 06:25 UTC. Time now 2014-Apr-24 11:23 UTC.
Position N 34°26' E 025°11'.

Length 285 m; draft 10.7 m.

Type: Ship (hazmat cat D). MMSI: 564442000.

NotesDate/timePositionNaut miles runAvg speedWind from/ knotsBaromVisibWave heightAir tempDewpointWater temp
2014-Apr-18 06:25N 34°26' E 025°11'16216.1
2014-Apr-17 20:21N 33°38' E 028°17'28716.7
2014-Apr-17 03:13N 32°11' E 033°43'1217.4
2014-Apr-17 02:33N 32°07' E 033°56'1817.5
2014-Apr-17 01:32N 31°60' E 034°15'23 7.3
2014-Apr-16 22:25N 31°50' E 034°39'0 0.0
2014-Apr-16 19:25N 31°50' E 034°39'0 0.0
2014-Apr-16 17:25N 31°50' E 034°39'10 0.3
2014-Apr-15 02:33N 31°52' E 034°28'1211.5
2014-Apr-15 01:33N 31°57' E 034°15'1514.6
2014-Apr-15 00:33N 32°02' E 033°59'1414.2
2014-Apr-14 23:33N 32°02' E 033°43'1414.3
2014-Apr-14 22:33N 32°01' E 033°26'1414.6
2014-Apr-14 21:34N 31°60' E 033°09'1514.5
2014-Apr-14 20:33N 31°59' E 032°52'1514.7
2014-Apr-14 19:33N 31°59' E 032°34'1414.5
2014-Apr-14 18:33N 31°58' E 032°17'  
2014-Apr-12 13:06N 30°59' E 032°19'25 9.7
2014-Apr-12 10:32N 30°34' E 032°18'48 5.4
2014-Apr-12 01:33N 29°47' E 032°34'0 0.0
2014-Apr-12 00:33N 29°47' E 032°34'1 0.7
2014-Apr-11 22:33N 29°46' E 032°33'  

Dump ship's entire track history

sailing weather and tide predictions

Ever Ulysses — 9V7962 — position and weather